Time;durP1;ratioP1;P1;durP2;ratioP2;P2;SDS_P1;SDS_P2;PMS_P1;PMS_P2;Temp;Humidity;BMP_temperature;BMP_pressure;BME280_temperature;BME280_humidity;BME280_pressure;Samples;Min_cycle;Max_cycle;Signal;HPM_P1;HPM_P2
2023/07/30 00:07:46;;;;;;;2.83;1.30;;;;;;;16.14;75.39;99507.09;31078337;28;115080;-63
2023/07/30 00:22:46;;;;;;;3.15;1.73;;;;;;;15.84;76.21;99510.50;31076450;28;103460;-64
2023/07/30 00:37:47;;;;;;;2.25;1.45;;;;;;;15.71;75.99;99526.72;31084771;28;97258;-63
2023/07/30 00:52:48;;;;;;;4.35;1.50;;;;;;;15.54;77.00;99532.63;31100230;28;109518;-64
2023/07/30 01:07:49;;;;;;;6.67;1.60;;;;;;;15.45;77.03;99544.69;31106655;28;97463;-64
2023/07/30 01:22:49;;;;;;;5.05;2.28;;;;;;;15.20;77.60;99540.09;31101555;28;97246;-61
2023/07/30 01:37:51;;;;;;;3.78;1.92;;;;;;;14.93;77.81;99560.91;31100628;28;96762;-61
2023/07/30 01:52:51;;;;;;;5.20;2.00;;;;;;;14.75;78.60;99572.34;31098989;28;97118;-60
2023/07/30 02:07:52;;;;;;;5.47;1.92;;;;;;;14.62;78.76;99565.13;31097501;28;108315;-62
2023/07/30 02:22:52;;;;;;;4.85;1.80;;;;;;;14.57;78.98;99573.00;31094180;28;96807;-61
2023/07/30 02:37:52;;;;;;;2.78;1.55;;;;;;;14.65;79.45;99574.63;31093876;28;107884;-60
2023/07/30 02:52:53;;;;;;;4.18;1.75;;;;;;;14.70;79.42;99580.19;31165807;27;115809;-60
2023/07/30 03:07:53;;;;;;;3.90;1.80;;;;;;;14.77;79.66;99591.69;31216993;28;110914;-60
2023/07/30 03:22:53;;;;;;;10.55;2.25;;;;;;;14.86;79.38;99589.59;31214688;28;112910;-60
2023/07/30 03:37:54;;;;;;;5.00;2.47;;;;;;;14.98;79.68;99581.69;31156542;28;113229;-62
2023/07/30 03:52:54;;;;;;;3.58;1.85;;;;;;;15.20;79.67;99580.34;31087864;28;97189;-63
2023/07/30 04:07:54;;;;;;;6.07;1.95;;;;;;;15.51;79.45;99583.25;31085520;28;97078;-61
2023/07/30 04:22:55;;;;;;;5.85;1.80;;;;;;;15.79;79.04;99596.25;31084151;28;102676;-61
2023/07/30 04:37:55;;;;;;;6.60;1.90;;;;;;;16.01;78.97;99596.72;31084148;28;96837;-64
2023/07/30 04:52:55;;;;;;;3.60;1.77;;;;;;;16.27;78.48;99596.69;31081339;28;97483;-60
2023/07/30 05:07:56;;;;;;;4.13;1.70;;;;;;;16.81;78.69;99610.34;31081316;28;97061;-63
2023/07/30 05:22:56;;;;;;;3.55;1.80;;;;;;;17.41;78.39;99604.22;31090270;28;97536;-64
2023/07/30 05:37:56;;;;;;;5.63;1.52;;;;;;;18.36;77.66;99582.78;31099452;28;103187;-64
2023/07/30 05:52:56;;;;;;;13.77;2.30;;;;;;;19.08;75.82;99617.47;31095520;28;102366;-65
2023/07/30 06:07:57;;;;;;;4.95;1.70;;;;;;;19.86;74.41;99633.19;31112793;28;97088;-64
2023/07/30 06:22:57;;;;;;;5.27;1.73;;;;;;;20.75;72.50;99642.34;31204958;27;97288;-63
2023/07/30 06:37:57;;;;;;;4.47;1.67;;;;;;;21.84;69.66;99648.94;31159153;27;96873;-63
2023/07/30 06:52:58;;;;;;;5.13;1.50;;;;;;;22.89;66.60;99648.28;31088168;28;98691;-64
2023/07/30 07:07:58;;;;;;;;;;;;;;;24.06;62.77;99656.16;31189646;28;113362;-63
2023/07/30 07:22:58;;;;;;;7.70;2.07;;;;;;;24.96;59.92;99660.88;31027914;28;97059;-65
2023/07/30 07:37:59;;;;;;;7.05;1.95;;;;;;;25.74;54.98;99665.91;31019771;28;99318;-63
2023/07/30 07:52:59;;;;;;;6.93;1.90;;;;;;;26.43;52.75;99669.44;31085961;28;106530;-65
2023/07/30 08:07:59;;;;;;;4.57;1.45;;;;;;;26.89;50.58;99654.47;31147154;28;97410;-67
2023/07/30 08:23:00;;;;;;;5.43;1.52;;;;;;;27.91;47.86;99661.53;31111979;28;113256;-65
2023/07/30 08:38:00;;;;;;;2.22;1.58;;;;;;;28.07;45.48;99656.63;31079384;28;100772;-67
2023/07/30 08:53:02;;;;;;;2.78;1.35;;;;;;;30.15;42.97;99653.59;31081484;28;96892;-67
2023/07/30 09:08:03;;;;;;;1.97;1.60;;;;;;;29.23;41.23;99653.84;31093440;28;97563;-67
2023/07/30 09:23:05;;;;;;;3.08;1.50;;;;;;;30.35;39.93;99641.25;31092984;28;97678;-67
2023/07/30 09:38:05;;;;;;;2.83;1.50;;;;;;;31.17;35.77;99631.84;31090890;28;97126;-67
2023/07/30 09:53:06;;;;;;;4.25;1.50;;;;;;;30.27;39.08;99628.28;31081306;28;108574;-66
2023/07/30 10:08:10;;;;;;;2.63;1.53;;;;;;;29.87;37.93;99617.25;31088739;28;97655;-66
2023/07/30 10:23:11;;;;;;;2.90;1.33;;;;;;;32.12;35.67;99612.78;31086762;28;96834;-67
2023/07/30 10:38:30;;;;;;;3.58;1.40;;;;;;;32.00;34.43;99603.28;31085576;28;116476;-65
2023/07/30 10:53:30;;;;;;;2.30;1.30;;;;;;;31.41;35.02;99597.53;31082906;28;97481;-66
2023/07/30 11:08:40;;;;;;;2.30;1.20;;;;;;;30.29;34.87;99584.00;31079999;28;97901;-64
2023/07/30 11:23:41;;;;;;;2.60;1.67;;;;;;;27.52;38.64;99586.91;31079925;28;97249;-64
2023/07/30 11:38:44;;;;;;;2.17;0.80;;;;;;;24.33;46.32;99615.84;31078921;28;97150;-65
2023/07/30 11:53:49;;;;;;;1.90;1.50;;;;;;;23.52;50.95;99590.31;31079341;28;97205;-64
2023/07/30 12:08:51;;;;;;;3.67;1.80;;;;;;;22.62;54.19;99627.53;31077131;28;97296;-65
2023/07/30 12:23:51;;;;;;;3.00;1.97;;;;;;;22.00;55.97;99610.03;31074927;28;97180;-64
2023/07/30 12:38:53;;;;;;;3.47;1.90;;;;;;;22.02;57.76;99607.06;31091899;28;97509;-65
2023/07/30 12:53:53;;;;;;;2.13;1.23;;;;;;;22.76;57.46;99599.91;31097418;28;97669;-65
2023/07/30 13:08:54;;;;;;;;;;;;;;;23.04;56.06;99585.03;31094136;28;113569;-65
2023/07/30 13:23:54;;;;;;;2.13;1.20;;;;;;;23.91;54.70;99567.25;31026760;28;98649;-65
2023/07/30 13:38:54;;;;;;;1.85;1.15;;;;;;;24.96;53.42;99542.91;31098321;28;120478;-65
2023/07/30 13:53:55;;;;;;;1.83;1.13;;;;;;;25.03;52.14;99554.31;31098276;28;97161;-64
2023/07/30 14:08:55;;;;;;;2.70;1.83;;;;;;;25.53;51.18;99543.34;31095693;28;106074;-64
2023/07/30 14:23:55;;;;;;;1.98;1.27;;;;;;;25.59;49.62;99531.31;31094581;28;97140;-65
2023/07/30 14:38:56;;;;;;;3.90;1.30;;;;;;;25.41;48.97;99545.63;31091218;28;97428;-66
2023/07/30 14:53:56;;;;;;;2.00;1.10;;;;;;;25.39;48.15;99569.66;31087562;28;97376;-64
2023/07/30 15:08:57;;;;;;;2.35;1.45;;;;;;;25.10;48.77;99592.16;31087400;28;110657;-71
2023/07/30 15:24:00;;;;;;;3.55;1.20;;;;;;;23.95;49.61;99615.38;31073663;28;96981;-66
2023/07/30 15:39:00;;;;;;;4.73;2.63;;;;;;;21.77;54.19;99627.47;31076662;28;96826;-65
2023/07/30 15:54:02;;;;;;;4.20;1.20;;;;;;;19.66;59.80;99589.59;31086995;28;98311;-65
2023/07/30 16:09:02;;;;;;;4.07;1.30;;;;;;;18.63;63.55;99561.50;31075136;28;98267;-65
2023/07/30 16:24:03;;;;;;;1.42;1.00;;;;;;;19.04;65.80;99545.28;31072994;28;104248;-65
2023/07/30 16:39:04;;;;;;;5.53;1.10;;;;;;;19.20;65.90;99566.09;31071663;28;97710;-66
2023/07/30 16:54:04;;;;;;;;;;;;;;;19.31;66.27;99588.72;31034359;28;98846;-64
2023/07/30 17:09:04;;;;;;;2.45;0.90;;;;;;;19.09;66.56;99602.09;30951427;28;97747;-63
2023/07/30 17:24:05;;;;;;;2.85;1.38;;;;;;;18.98;67.81;99587.56;31056245;28;100850;-65
2023/07/30 17:39:05;;;;;;;2.42;1.02;;;;;;;18.69;68.07;99570.53;31089630;28;115029;-63
2023/07/30 17:54:05;;;;;;;2.72;1.30;;;;;;;18.71;68.56;99600.75;31089496;28;101468;-65
2023/07/30 18:09:06;;;;;;;5.32;1.33;;;;;;;18.60;69.23;99616.75;31087530;28;105039;-68
2023/07/30 18:24:06;;;;;;;5.35;1.42;;;;;;;18.65;69.76;99647.59;31073760;28;97446;-65
2023/07/30 18:39:09;;;;;;;4.15;1.75;;;;;;;18.51;69.88;99655.13;31006594;28;101557;-67
2023/07/30 18:54:09;;;;;;;4.03;1.60;;;;;;;18.43;70.96;99654.41;30969088;28;97246;-69
2023/07/30 19:09:10;;;;;;;5.22;2.20;;;;;;;18.64;71.57;99716.09;31052462;28;96857;-68
2023/07/30 19:24:10;;;;;;;3.13;1.73;;;;;;;18.90;71.63;99741.78;31081130;28;97466;-69
2023/07/30 19:39:10;;;;;;;3.38;1.98;;;;;;;19.15;72.08;99757.72;31079941;28;97102;-68
2023/07/30 19:54:11;;;;;;;3.42;1.80;;;;;;;19.49;70.90;99774.09;31044625;28;100803;-66
2023/07/30 20:09:12;;;;;;;3.88;1.83;;;;;;;19.47;69.19;99746.47;30955048;28;97867;-65
2023/07/30 20:24:13;;;;;;;2.80;1.40;;;;;;;18.71;68.98;99757.25;30975225;28;97415;-66
2023/07/30 20:39:13;;;;;;;3.50;1.35;;;;;;;17.91;70.87;99749.38;31075346;28;114002;-64
2023/07/30 20:54:13;;;;;;;2.28;1.30;;;;;;;17.74;71.77;99757.25;30993115;28;99148;-65
2023/07/30 21:09:14;;;;;;;2.30;1.45;;;;;;;17.72;71.35;99772.00;31036103;28;97425;-65
2023/07/30 21:24:15;;;;;;;3.23;1.30;;;;;;;17.27;72.22;99775.03;31102748;28;97659;-67
2023/07/30 21:39:15;;;;;;;2.38;0.80;;;;;;;17.13;72.92;99791.34;31100652;28;97219;-68
2023/07/30 21:54:15;;;;;;;2.92;1.30;;;;;;;16.95;73.78;99816.34;31102532;28;104963;-67
2023/07/30 22:09:16;;;;;;;5.00;3.28;;;;;;;17.02;74.18;99829.75;31096235;28;96712;-65
2023/07/30 22:24:16;;;;;;;4.38;2.70;;;;;;;17.08;74.39;99823.47;31095087;28;104924;-63
2023/07/30 22:39:16;;;;;;;2.88;1.90;;;;;;;17.00;74.31;99818.38;31094398;28;97297;-68
2023/07/30 22:54:17;;;;;;;4.70;1.75;;;;;;;16.79;74.54;99822.28;31092622;28;97217;-67
2023/07/30 23:09:20;;;;;;;4.80;1.70;;;;;;;16.71;75.33;99826.03;31089943;28;96711;-64
2023/07/30 23:24:21;;;;;;;4.07;1.90;;;;;;;16.76;75.50;99839.66;31089491;28;96730;-69
2023/07/30 23:39:21;;;;;;;2.55;1.52;;;;;;;16.77;75.59;99840.47;31088918;28;98746;-66
2023/07/30 23:54:21;;;;;;;4.68;2.03;;;;;;;16.76;75.26;99836.97;31086094;28;96635;-63
